sensor_id;sensor_type;location;lat;lon;timestamp;pressure;altitude;pressure_sealevel;temperature;humidity
34925;BME280;21130;51.728;8.748;2022-07-23T00:00:04;100621.28;;;14.82;100.00
34925;BME280;21130;51.728;8.748;2022-07-23T00:02:30;100620.72;;;14.80;100.00
34925;BME280;21130;51.728;8.748;2022-07-23T00:04:55;100625.72;;;14.78;100.00
34925;BME280;21130;51.728;8.748;2022-07-23T00:07:20;100613.13;;;14.76;100.00
34925;BME280;21130;51.728;8.748;2022-07-23T00:09:46;100610.59;;;14.74;100.00
34925;BME280;21130;51.728;8.748;2022-07-23T00:12:11;100622.31;;;14.71;100.00
34925;BME280;21130;51.728;8.748;2022-07-23T00:14:36;100630.44;;;14.73;100.00
34925;BME280;21130;51.728;8.748;2022-07-23T00:17:02;100638.03;;;14.77;100.00
34925;BME280;21130;51.728;8.748;2022-07-23T00:19:27;100644.69;;;14.76;100.00
34925;BME280;21130;51.728;8.748;2022-07-23T00:21:54;100638.53;;;14.74;100.00
34925;BME280;21130;51.728;8.748;2022-07-23T00:24:20;100636.03;;;14.73;100.00
34925;BME280;21130;51.728;8.748;2022-07-23T00:26:45;100621.19;;;14.72;100.00
34925;BME280;21130;51.728;8.748;2022-07-23T00:29:11;100608.34;;;14.71;100.00
34925;BME280;21130;51.728;8.748;2022-07-23T00:31:36;100608.91;;;14.68;100.00
34925;BME280;21130;51.728;8.748;2022-07-23T00:34:01;100611.16;;;14.71;100.00
34925;BME280;21130;51.728;8.748;2022-07-23T00:36:27;100613.09;;;14.71;100.00
34925;BME280;21130;51.728;8.748;2022-07-23T00:38:53;100612.28;;;14.70;100.00
34925;BME280;21130;51.728;8.748;2022-07-23T00:41:19;100613.91;;;14.66;100.00
34925;BME280;21130;51.728;8.748;2022-07-23T00:43:44;100610.00;;;14.67;100.00
34925;BME280;21130;51.728;8.748;2022-07-23T00:46:09;100610.00;;;14.67;100.00
34925;BME280;21130;51.728;8.748;2022-07-23T00:48:35;100601.91;;;14.65;100.00
34925;BME280;21130;51.728;8.748;2022-07-23T00:51:00;100613.06;;;14.65;100.00
34925;BME280;21130;51.728;8.748;2022-07-23T00:53:25;100610.28;;;14.65;100.00
34925;BME280;21130;51.728;8.748;2022-07-23T00:55:51;100616.44;;;14.67;100.00
34925;BME280;21130;51.728;8.748;2022-07-23T00:58:17;100620.66;;;14.70;100.00
34925;BME280;21130;51.728;8.748;2022-07-23T01:00:42;100636.91;;;14.78;100.00
34925;BME280;21130;51.728;8.748;2022-07-23T01:03:08;100638.31;;;14.81;100.00
34925;BME280;21130;51.728;8.748;2022-07-23T01:05:33;100636.06;;;14.78;100.00
34925;BME280;21130;51.728;8.748;2022-07-23T01:07:59;100634.91;;;14.74;100.00
34925;BME280;21130;51.728;8.748;2022-07-23T01:10:25;100633.22;;;14.73;100.00
34925;BME280;21130;51.728;8.748;2022-07-23T01:13:04;100645.88;;;14.85;100.00
34925;BME280;21130;51.728;8.748;2022-07-23T01:15:30;100653.72;;;14.88;100.00
34925;BME280;21130;51.728;8.748;2022-07-23T01:17:56;100659.28;;;14.83;100.00
34925;BME280;21130;51.728;8.748;2022-07-23T01:20:22;100649.78;;;14.84;100.00
34925;BME280;21130;51.728;8.748;2022-07-23T01:22:47;100640.84;;;14.82;100.00
34925;BME280;21130;51.728;8.748;2022-07-23T01:25:14;100667.41;;;14.85;100.00
34925;BME280;21130;51.728;8.748;2022-07-23T01:27:40;100667.69;;;14.88;100.00
34925;BME280;21130;51.728;8.748;2022-07-23T01:30:06;100672.41;;;14.83;100.00
34925;BME280;21130;51.728;8.748;2022-07-23T01:32:31;100661.81;;;14.85;100.00
34925;BME280;21130;51.728;8.748;2022-07-23T01:34:57;100650.31;;;14.81;100.00
34925;BME280;21130;51.728;8.748;2022-07-23T01:37:22;100657.03;;;14.80;100.00
34925;BME280;21130;51.728;8.748;2022-07-23T01:39:47;100655.91;;;14.81;100.00
34925;BME280;21130;51.728;8.748;2022-07-23T01:42:13;100643.31;;;14.79;100.00
34925;BME280;21130;51.728;8.748;2022-07-23T01:44:38;100637.44;;;14.75;100.00
34925;BME280;21130;51.728;8.748;2022-07-23T01:47:04;100631.28;;;14.73;100.00
34925;BME280;21130;51.728;8.748;2022-07-23T01:49:29;100619.78;;;14.69;100.00
34925;BME280;21130;51.728;8.748;2022-07-23T01:51:54;100622.88;;;14.68;100.00
34925;BME280;21130;51.728;8.748;2022-07-23T01:54:31;100628.13;;;14.64;100.00
34925;BME280;21130;51.728;8.748;2022-07-23T01:56:57;100624.47;;;14.59;100.00
34925;BME280;21130;51.728;8.748;2022-07-23T01:59:23;100618.00;;;14.53;100.00
34925;BME280;21130;51.728;8.748;2022-07-23T02:01:49;100622.16;;;14.51;100.00
34925;BME280;21130;51.728;8.748;2022-07-23T02:04:18;100615.41;;;14.46;100.00
34925;BME280;21130;51.728;8.748;2022-07-23T02:06:44;100615.94;;;14.43;100.00
34925;BME280;21130;51.728;8.748;2022-07-23T02:09:10;100601.41;;;14.41;100.00
34925;BME280;21130;51.728;8.748;2022-07-23T02:11:36;100597.00;;;14.45;100.00
34925;BME280;21130;51.728;8.748;2022-07-23T02:14:01;100603.19;;;14.53;100.00
34925;BME280;21130;51.728;8.748;2022-07-23T02:16:26;100602.03;;;14.48;100.00
34925;BME280;21130;51.728;8.748;2022-07-23T02:18:52;100605.91;;;14.42;100.00
34925;BME280;21130;51.728;8.748;2022-07-23T02:21:17;100596.38;;;14.38;100.00
34925;BME280;21130;51.728;8.748;2022-07-23T02:23:42;100599.41;;;14.37;100.00
34925;BME280;21130;51.728;8.748;2022-07-23T02:26:08;100608.38;;;14.39;100.00
34925;BME280;21130;51.728;8.748;2022-07-23T02:28:34;100605.53;;;14.34;100.00
34925;BME280;21130;51.728;8.748;2022-07-23T02:30:59;100610.28;;;14.33;100.00
34925;BME280;21130;51.728;8.748;2022-07-23T02:33:25;100603.56;;;14.29;100.00
34925;BME280;21130;51.728;8.748;2022-07-23T02:35:50;100609.75;;;14.36;100.00
34925;BME280;21130;51.728;8.748;2022-07-23T02:38:15;100612.50;;;14.31;100.00
34925;BME280;21130;51.728;8.748;2022-07-23T02:40:41;100590.13;;;14.26;100.00
34925;BME280;21130;51.728;8.748;2022-07-23T02:43:06;100589.28;;;14.25;100.00
34925;BME280;21130;51.728;8.748;2022-07-23T02:45:32;100591.25;;;14.25;100.00
34925;BME280;21130;51.728;8.748;2022-07-23T02:47:57;100585.09;;;14.23;100.00
34925;BME280;21130;51.728;8.748;2022-07-23T02:50:22;100583.38;;;14.22;100.00
34925;BME280;21130;51.728;8.748;2022-07-23T02:52:48;100588.94;;;14.17;100.00
34925;BME280;21130;51.728;8.748;2022-07-23T02:55:13;100580.56;;;14.17;100.00
34925;BME280;21130;51.728;8.748;2022-07-23T02:57:39;100578.34;;;14.19;100.00
34925;BME280;21130;51.728;8.748;2022-07-23T03:00:05;100573.88;;;14.18;100.00
34925;BME280;21130;51.728;8.748;2022-07-23T03:02:31;100574.44;;;14.15;100.00
34925;BME280;21130;51.728;8.748;2022-07-23T03:04:56;100569.97;;;14.19;100.00
34925;BME280;21130;51.728;8.748;2022-07-23T03:07:22;100577.31;;;14.25;100.00
34925;BME280;21130;51.728;8.748;2022-07-23T03:09:47;100580.38;;;14.29;100.00
34925;BME280;21130;51.728;8.748;2022-07-23T03:12:13;100577.88;;;14.27;100.00
34925;BME280;21130;51.728;8.748;2022-07-23T03:14:38;100572.56;;;14.25;100.00
34925;BME280;21130;51.728;8.748;2022-07-23T03:17:04;100576.72;;;14.23;100.00
34925;BME280;21130;51.728;8.748;2022-07-23T03:19:29;100578.09;;;14.20;100.00
34925;BME280;21130;51.728;8.748;2022-07-23T03:21:54;100572.78;;;14.19;100.00
34925;BME280;21130;51.728;8.748;2022-07-23T03:24:20;100575.31;;;14.20;100.00
34925;BME280;21130;51.728;8.748;2022-07-23T03:26:46;100564.97;;;14.21;100.00
34925;BME280;21130;51.728;8.748;2022-07-23T03:29:12;100566.94;;;14.20;100.00
34925;BME280;21130;51.728;8.748;2022-07-23T03:31:37;100561.31;;;14.15;100.00
34925;BME280;21130;51.728;8.748;2022-07-23T03:34:02;100561.56;;;14.14;100.00
34925;BME280;21130;51.728;8.748;2022-07-23T03:36:28;100560.94;;;14.07;100.00
34925;BME280;21130;51.728;8.748;2022-07-23T03:38:53;100572.34;;;14.00;100.00
34925;BME280;21130;51.728;8.748;2022-07-23T03:41:19;100564.78;;;13.95;100.00
34925;BME280;21130;51.728;8.748;2022-07-23T03:43:45;100575.91;;;13.90;100.00
34925;BME280;21130;51.728;8.748;2022-07-23T03:46:11;100568.84;;;13.82;100.00
34925;BME280;21130;51.728;8.748;2022-07-23T03:48:37;100567.97;;;13.77;100.00
34925;BME280;21130;51.728;8.748;2022-07-23T03:51:02;100571.22;;;13.69;100.00
34925;BME280;21130;51.728;8.748;2022-07-23T03:53:28;100582.97;;;13.71;100.00
34925;BME280;21130;51.728;8.748;2022-07-23T03:55:53;100590.50;;;13.70;100.00
34925;BME280;21130;51.728;8.748;2022-07-23T03:58:19;100592.94;;;13.67;100.00
34925;BME280;21130;51.728;8.748;2022-07-23T04:00:44;100596.56;;;13.62;100.00
34925;BME280;21130;51.728;8.748;2022-07-23T04:03:09;100598.53;;;13.67;100.00
34925;BME280;21130;51.728;8.748;2022-07-23T04:05:35;100590.91;;;13.57;100.00
34925;BME280;21130;51.728;8.748;2022-07-23T04:08:00;100604.59;;;13.58;100.00
34925;BME280;21130;51.728;8.748;2022-07-23T04:10:25;100602.06;;;13.57;100.00
34925;BME280;21130;51.728;8.748;2022-07-23T04:12:51;100603.94;;;13.51;100.00
34925;BME280;21130;51.728;8.748;2022-07-23T04:15:16;100598.38;;;13.51;100.00
34925;BME280;21130;51.728;8.748;2022-07-23T04:17:41;100586.56;;;13.44;100.00
34925;BME280;21130;51.728;8.748;2022-07-23T04:20:28;100585.44;;;13.40;100.00
34925;BME280;21130;51.728;8.748;2022-07-23T04:22:54;100590.41;;;13.38;100.00
34925;BME280;21130;51.728;8.748;2022-07-23T04:25:19;100590.66;;;13.36;100.00
34925;BME280;21130;51.728;8.748;2022-07-23T04:27:48;100588.16;;;13.35;100.00
34925;BME280;21130;51.728;8.748;2022-07-23T04:30:13;100580.59;;;13.30;100.00
34925;BME280;21130;51.728;8.748;2022-07-23T04:32:39;100585.31;;;13.30;100.00
34925;BME280;21130;51.728;8.748;2022-07-23T04:35:04;100594.53;;;13.30;100.00
34925;BME280;21130;51.728;8.748;2022-07-23T04:37:30;100598.97;;;13.31;100.00
34925;BME280;21130;51.728;8.748;2022-07-23T04:39:55;100608.03;;;13.44;100.00
34925;BME280;21130;51.728;8.748;2022-07-23T04:42:20;100607.78;;;13.45;100.00
34925;BME280;21130;51.728;8.748;2022-07-23T04:44:46;100606.69;;;13.46;100.00
34925;BME280;21130;51.728;8.748;2022-07-23T04:47:11;100612.00;;;13.48;100.00
34925;BME280;21130;51.728;8.748;2022-07-23T04:49:36;100620.72;;;13.56;100.00
34925;BME280;21130;51.728;8.748;2022-07-23T04:52:02;100619.38;;;13.59;100.00
34925;BME280;21130;51.728;8.748;2022-07-23T04:54:27;100613.84;;;13.64;100.00
34925;BME280;21130;51.728;8.748;2022-07-23T04:56:53;100615.84;;;13.69;100.00
34925;BME280;21130;51.728;8.748;2022-07-23T04:59:18;100616.75;;;13.74;100.00
34925;BME280;21130;51.728;8.748;2022-07-23T05:01:43;100612.91;;;13.80;100.00
34925;BME280;21130;51.728;8.748;2022-07-23T05:04:08;100608.22;;;13.86;100.00
34925;BME280;21130;51.728;8.748;2022-07-23T05:06:34;100621.13;;;13.92;100.00
34925;BME280;21130;51.728;8.748;2022-07-23T05:08:59;100611.94;;;13.97;100.00
34925;BME280;21130;51.728;8.748;2022-07-23T05:11:24;100615.66;;;14.08;100.00
34925;BME280;21130;51.728;8.748;2022-07-23T05:13:49;100608.44;;;14.12;100.00
34925;BME280;21130;51.728;8.748;2022-07-23T05:16:16;100607.38;;;14.18;100.00
34925;BME280;21130;51.728;8.748;2022-07-23T05:18:41;100602.41;;;14.25;100.00
34925;BME280;21130;51.728;8.748;2022-07-23T05:21:07;100606.94;;;14.31;100.00
34925;BME280;21130;51.728;8.748;2022-07-23T05:23:32;100604.16;;;14.36;100.00
34925;BME280;21130;51.728;8.748;2022-07-23T05:25:57;100610.94;;;14.45;100.00
34925;BME280;21130;51.728;8.748;2022-07-23T05:28:23;100604.88;;;14.54;100.00
34925;BME280;21130;51.728;8.748;2022-07-23T05:30:48;100606.66;;;14.65;100.00
34925;BME280;21130;51.728;8.748;2022-07-23T05:33:13;100615.38;;;14.79;100.00
34925;BME280;21130;51.728;8.748;2022-07-23T05:41:50;100624.28;;;15.23;100.00
34925;BME280;21130;51.728;8.748;2022-07-23T05:44:16;100633.56;;;15.39;100.00
34925;BME280;21130;51.728;8.748;2022-07-23T05:46:41;100627.44;;;15.47;100.00
34925;BME280;21130;51.728;8.748;2022-07-23T05:49:06;100621.13;;;15.72;100.00
34925;BME280;21130;51.728;8.748;2022-07-23T05:51:32;100627.00;;;15.86;100.00
34925;BME280;21130;51.728;8.748;2022-07-23T05:53:57;100625.88;;;15.92;100.00
34925;BME280;21130;51.728;8.748;2022-07-23T05:56:22;100633.47;;;16.02;100.00
34925;BME280;21130;51.728;8.748;2022-07-23T05:58:48;100635.13;;;15.83;100.00
34925;BME280;21130;51.728;8.748;2022-07-23T06:01:13;100644.38;;;15.88;100.00
34925;BME280;21130;51.728;8.748;2022-07-23T06:03:38;100646.63;;;15.96;100.00
34925;BME280;21130;51.728;8.748;2022-07-23T06:06:05;100636.78;;;15.79;100.00
34925;BME280;21130;51.728;8.748;2022-07-23T06:08:30;100642.03;;;15.65;100.00
34925;BME280;21130;51.728;8.748;2022-07-23T06:10:55;100645.69;;;15.65;100.00
34925;BME280;21130;51.728;8.748;2022-07-23T06:13:21;100644.88;;;15.70;100.00
34925;BME280;21130;51.728;8.748;2022-07-23T06:15:46;100655.28;;;15.90;100.00
34925;BME280;21130;51.728;8.748;2022-07-23T06:18:11;100649.16;;;15.98;100.00
34925;BME280;21130;51.728;8.748;2022-07-23T06:20:37;100651.41;;;16.11;100.00
34925;BME280;21130;51.728;8.748;2022-07-23T06:23:02;100651.41;;;16.32;100.00
34925;BME280;21130;51.728;8.748;2022-07-23T06:25:28;100643.56;;;16.44;100.00
34925;BME280;21130;51.728;8.748;2022-07-23T06:27:53;100649.13;;;16.70;100.00
34925;BME280;21130;51.728;8.748;2022-07-23T06:30:21;100651.13;;;16.79;100.00
34925;BME280;21130;51.728;8.748;2022-07-23T06:32:49;100650.19;;;17.15;100.00
34925;BME280;21130;51.728;8.748;2022-07-23T06:35:15;100654.66;;;17.26;100.00
34925;BME280;21130;51.728;8.748;2022-07-23T06:37:40;100658.94;;;16.98;99.96
34925;BME280;21130;51.728;8.748;2022-07-23T06:40:06;100651.88;;;17.16;100.00
34925;BME280;21130;51.728;8.748;2022-07-23T06:42:33;100660.81;;;17.18;98.23
34925;BME280;21130;51.728;8.748;2022-07-23T06:44:58;100667.81;;;17.31;96.64
34925;BME280;21130;51.728;8.748;2022-07-23T06:47:23;100674.78;;;17.43;96.48
34925;BME280;21130;51.728;8.748;2022-07-23T06:49:49;100675.34;;;17.35;94.16
34925;BME280;21130;51.728;8.748;2022-07-23T06:52:14;100672.38;;;17.06;94.58
34925;BME280;21130;51.728;8.748;2022-07-23T06:54:40;100668.22;;;16.83;95.77
34925;BME280;21130;51.728;8.748;2022-07-23T06:57:05;100672.69;;;16.84;97.58
34925;BME280;21130;51.728;8.748;2022-07-23T06:59:30;100679.72;;;16.87;97.46
34925;BME280;21130;51.728;8.748;2022-07-23T07:01:56;100677.41;;;17.09;96.74
34925;BME280;21130;51.728;8.748;2022-07-23T07:04:23;100688.00;;;17.33;95.92
34925;BME280;21130;51.728;8.748;2022-07-23T07:06:48;100694.97;;;17.51;91.42
34925;BME280;21130;51.728;8.748;2022-07-23T07:09:14;100691.59;;;17.48;89.98
34925;BME280;21130;51.728;8.748;2022-07-23T07:11:42;100694.09;;;17.50;91.43
34925;BME280;21130;51.728;8.748;2022-07-23T07:14:08;100694.88;;;17.71;93.53
34925;BME280;21130;51.728;8.748;2022-07-23T07:16:33;100692.91;;;17.71;90.40
34925;BME280;21130;51.728;8.748;2022-07-23T07:18:59;100684.91;;;17.99;87.37
34925;BME280;21130;51.728;8.748;2022-07-23T07:21:24;100689.91;;;18.07;84.18
34925;BME280;21130;51.728;8.748;2022-07-23T07:23:49;100694.63;;;18.17;85.14
34925;BME280;21130;51.728;8.748;2022-07-23T07:26:14;100695.50;;;18.52;85.56
34925;BME280;21130;51.728;8.748;2022-07-23T07:28:40;100691.78;;;18.62;82.18
34925;BME280;21130;51.728;8.748;2022-07-23T07:31:05;100700.38;;;19.05;80.85
34925;BME280;21130;51.728;8.748;2022-07-23T07:33:30;100701.47;;;18.80;81.90
34925;BME280;21130;51.728;8.748;2022-07-23T07:35:56;100706.56;;;18.72;81.80
34925;BME280;21130;51.728;8.748;2022-07-23T07:38:21;100704.31;;;18.74;80.98
34925;BME280;21130;51.728;8.748;2022-07-23T07:40:46;100701.03;;;18.62;81.42
34925;BME280;21130;51.728;8.748;2022-07-23T07:43:15;100705.81;;;18.62;81.42
34925;BME280;21130;51.728;8.748;2022-07-23T07:45:41;100702.47;;;18.60;83.58
34925;BME280;21130;51.728;8.748;2022-07-23T07:48:06;100709.38;;;18.72;79.99
34925;BME280;21130;51.728;8.748;2022-07-23T07:50:32;100711.41;;;19.01;81.04
34925;BME280;21130;51.728;8.748;2022-07-23T07:52:57;100711.75;;;19.18;78.14
34925;BME280;21130;51.728;8.748;2022-07-23T07:55:22;100706.28;;;19.03;76.31
34925;BME280;21130;51.728;8.748;2022-07-23T07:57:48;100717.19;;;18.81;77.29
34925;BME280;21130;51.728;8.748;2022-07-23T08:00:13;100715.38;;;18.95;76.81
34925;BME280;21130;51.728;8.748;2022-07-23T08:02:51;100718.31;;;19.14;79.09
34925;BME280;21130;51.728;8.748;2022-07-23T08:05:21;100722.59;;;19.06;76.91
34925;BME280;21130;51.728;8.748;2022-07-23T08:07:47;100723.19;;;19.03;77.66
34925;BME280;21130;51.728;8.748;2022-07-23T08:10:13;100726.81;;;19.33;73.53
34925;BME280;21130;51.728;8.748;2022-07-23T08:12:43;100727.81;;;19.66;72.93
34925;BME280;21130;51.728;8.748;2022-07-23T08:15:11;100741.69;;;19.09;72.24
34925;BME280;21130;51.728;8.748;2022-07-23T08:17:37;100733.75;;;19.16;71.88
34925;BME280;21130;51.728;8.748;2022-07-23T08:20:04;100723.25;;;19.51;74.04
34925;BME280;21130;51.728;8.748;2022-07-23T08:22:50;100728.59;;;19.77;72.19
34925;BME280;21130;51.728;8.748;2022-07-23T08:25:23;100725.44;;;19.78;70.14
34925;BME280;21130;51.728;8.748;2022-07-23T08:27:49;100726.94;;;20.14;70.54
34925;BME280;21130;51.728;8.748;2022-07-23T08:30:15;100735.34;;;20.38;67.93
34925;BME280;21130;51.728;8.748;2022-07-23T08:32:55;100739.75;;;20.63;69.76
34925;BME280;21130;51.728;8.748;2022-07-23T08:35:28;100737.75;;;20.82;69.21
34925;BME280;21130;51.728;8.748;2022-07-23T08:37:55;100741.66;;;20.67;65.59
34925;BME280;21130;51.728;8.748;2022-07-23T08:40:21;100741.50;;;20.40;63.93
34925;BME280;21130;51.728;8.748;2022-07-23T08:42:48;100736.56;;;20.32;63.59
34925;BME280;21130;51.728;8.748;2022-07-23T08:45:19;100749.13;;;20.58;64.77
34925;BME280;21130;51.728;8.748;2022-07-23T08:47:57;100734.13;;;20.96;64.38
34925;BME280;21130;51.728;8.748;2022-07-23T08:50:27;100741.00;;;21.22;63.10
34925;BME280;21130;51.728;8.748;2022-07-23T08:52:53;100737.16;;;21.32;62.23
34925;BME280;21130;51.728;8.748;2022-07-23T08:55:21;100745.69;;;20.80;65.58
34925;BME280;21130;51.728;8.748;2022-07-23T08:57:48;100751.13;;;20.58;63.35
34925;BME280;21130;51.728;8.748;2022-07-23T09:00:14;100748.75;;;20.27;64.68
34925;BME280;21130;51.728;8.748;2022-07-23T09:02:41;100750.25;;;20.76;62.21
34925;BME280;21130;51.728;8.748;2022-07-23T09:05:07;100746.13;;;21.20;61.72
34925;BME280;21130;51.728;8.748;2022-07-23T09:10:09;100759.94;;;21.35;59.82
34925;BME280;21130;51.728;8.748;2022-07-23T09:12:36;100753.75;;;21.33;59.04
34925;BME280;21130;51.728;8.748;2022-07-23T09:15:08;100755.31;;;20.60;61.28
34925;BME280;21130;51.728;8.748;2022-07-23T09:17:42;100756.81;;;20.53;62.21
34925;BME280;21130;51.728;8.748;2022-07-23T09:20:12;100762.00;;;20.83;63.49
34925;BME280;21130;51.728;8.748;2022-07-23T09:22:38;100749.41;;;20.95;60.67
34925;BME280;21130;51.728;8.748;2022-07-23T09:27:58;100757.25;;;21.44;58.69
34925;BME280;21130;51.728;8.748;2022-07-23T09:30:30;100740.72;;;21.79;55.23
34925;BME280;21130;51.728;8.748;2022-07-23T09:33:15;100749.75;;;21.81;58.71
34925;BME280;21130;51.728;8.748;2022-07-23T09:38:12;100750.41;;;23.32;51.95
34925;BME280;21130;51.728;8.748;2022-07-23T09:40:38;100749.75;;;23.66;50.74
34925;BME280;21130;51.728;8.748;2022-07-23T09:43:03;100746.19;;;23.92;49.72
34925;BME280;21130;51.728;8.748;2022-07-23T09:45:29;100746.72;;;24.11;48.07
34925;BME280;21130;51.728;8.748;2022-07-23T09:48:15;100752.69;;;23.21;53.49
34925;BME280;21130;51.728;8.748;2022-07-23T09:50:42;100749.44;;;23.37;50.84
34925;BME280;21130;51.728;8.748;2022-07-23T09:53:08;100750.06;;;22.80;51.48
34925;BME280;21130;51.728;8.748;2022-07-23T09:55:35;100754.03;;;22.20;52.56
34925;BME280;21130;51.728;8.748;2022-07-23T09:58:02;100751.28;;;22.29;54.71
34925;BME280;21130;51.728;8.748;2022-07-23T10:00:28;100745.59;;;22.42;55.56
34925;BME280;21130;51.728;8.748;2022-07-23T10:02:54;100745.50;;;22.93;50.62
34925;BME280;21130;51.728;8.748;2022-07-23T10:05:20;100762.66;;;22.74;51.41
34925;BME280;21130;51.728;8.748;2022-07-23T10:07:46;100757.28;;;23.40;50.22
34925;BME280;21130;51.728;8.748;2022-07-23T10:10:13;100755.97;;;23.46;49.73
34925;BME280;21130;51.728;8.748;2022-07-23T10:12:38;100762.38;;;23.29;50.31
34925;BME280;21130;51.728;8.748;2022-07-23T10:15:16;100751.47;;;23.14;50.13
34925;BME280;21130;51.728;8.748;2022-07-23T10:17:42;100753.97;;;22.70;52.32
34925;BME280;21130;51.728;8.748;2022-07-23T10:20:08;100757.56;;;22.26;52.65
34925;BME280;21130;51.728;8.748;2022-07-23T10:22:40;100753.50;;;21.76;56.06
34925;BME280;21130;51.728;8.748;2022-07-23T10:25:27;100752.50;;;22.36;53.32
34925;BME280;21130;51.728;8.748;2022-07-23T10:30:41;100749.91;;;22.40;51.00
34925;BME280;21130;51.728;8.748;2022-07-23T10:33:20;100754.84;;;21.05;55.01
34925;BME280;21130;51.728;8.748;2022-07-23T10:36:03;100747.16;;;20.91;56.70
34925;BME280;21130;51.728;8.748;2022-07-23T10:38:42;100753.91;;;21.56;55.55
34925;BME280;21130;51.728;8.748;2022-07-23T10:41:09;100749.66;;;22.73;51.49
34925;BME280;21130;51.728;8.748;2022-07-23T10:43:43;100740.44;;;23.75;49.37
34925;BME280;21130;51.728;8.748;2022-07-23T10:46:22;100749.06;;;22.62;49.85
34925;BME280;21130;51.728;8.748;2022-07-23T10:49:32;100748.13;;;22.16;51.85
34925;BME280;21130;51.728;8.748;2022-07-23T10:52:17;100740.50;;;22.53;51.62
34925;BME280;21130;51.728;8.748;2022-07-23T10:57:10;100744.91;;;23.04;54.15
34925;BME280;21130;51.728;8.748;2022-07-23T11:02:38;100751.63;;;22.95;53.31
34925;BME280;21130;51.728;8.748;2022-07-23T11:05:04;100745.72;;;22.24;52.06
34925;BME280;21130;51.728;8.748;2022-07-23T11:07:30;100746.56;;;22.60;52.88
34925;BME280;21130;51.728;8.748;2022-07-23T11:09:55;100751.28;;;22.29;53.85
34925;BME280;21130;51.728;8.748;2022-07-23T11:17:28;100742.94;;;24.33;50.92
34925;BME280;21130;51.728;8.748;2022-07-23T11:22:45;100744.22;;;24.01;47.97
34925;BME280;21130;51.728;8.748;2022-07-23T11:25:13;100734.44;;;24.33;48.14
34925;BME280;21130;51.728;8.748;2022-07-23T11:27:44;100736.38;;;23.98;47.91
34925;BME280;21130;51.728;8.748;2022-07-23T11:35:34;100742.25;;;23.31;48.89
34925;BME280;21130;51.728;8.748;2022-07-23T11:40:29;100731.06;;;24.05;46.54
34925;BME280;21130;51.728;8.748;2022-07-23T11:43:00;100733.09;;;24.31;47.17
34925;BME280;21130;51.728;8.748;2022-07-23T11:45:33;100730.44;;;24.87;44.41
34925;BME280;21130;51.728;8.748;2022-07-23T11:48:00;100726.22;;;25.01;44.97
34925;BME280;21130;51.728;8.748;2022-07-23T11:50:26;100733.31;;;25.51;44.01
34925;BME280;21130;51.728;8.748;2022-07-23T11:52:53;100726.53;;;25.26;45.08
34925;BME280;21130;51.728;8.748;2022-07-23T11:55:18;100739.09;;;24.99;44.85
34925;BME280;21130;51.728;8.748;2022-07-23T11:57:44;100727.78;;;24.73;45.01
34925;BME280;21130;51.728;8.748;2022-07-23T12:00:14;100735.41;;;25.07;43.86
34925;BME280;21130;51.728;8.748;2022-07-23T12:02:43;100732.81;;;25.49;44.59
34925;BME280;21130;51.728;8.748;2022-07-23T12:05:13;100735.06;;;25.00;44.20
34925;BME280;21130;51.728;8.748;2022-07-23T12:07:41;100735.09;;;24.91;46.90
34925;BME280;21130;51.728;8.748;2022-07-23T12:10:13;100732.59;;;24.98;44.02
34925;BME280;21130;51.728;8.748;2022-07-23T12:12:43;100722.88;;;25.08;43.91
34925;BME280;21130;51.728;8.748;2022-07-23T12:15:11;100727.22;;;25.06;43.02
34925;BME280;21130;51.728;8.748;2022-07-23T12:17:39;100727.19;;;25.32;45.01
34925;BME280;21130;51.728;8.748;2022-07-23T12:20:07;100727.53;;;25.13;44.14
34925;BME280;21130;51.728;8.748;2022-07-23T12:25:05;100720.25;;;24.86;42.91
34925;BME280;21130;51.728;8.748;2022-07-23T12:27:31;100728.06;;;25.24;43.43
34925;BME280;21130;51.728;8.748;2022-07-23T12:29:56;100721.88;;;25.04;44.07
34925;BME280;21130;51.728;8.748;2022-07-23T12:32:26;100727.47;;;25.86;42.91
34925;BME280;21130;51.728;8.748;2022-07-23T12:35:05;100727.72;;;26.02;41.59
34925;BME280;21130;51.728;8.748;2022-07-23T12:37:42;100722.97;;;25.38;42.21
34925;BME280;21130;51.728;8.748;2022-07-23T12:40:20;100713.66;;;25.29;41.57
34925;BME280;21130;51.728;8.748;2022-07-23T12:42:53;100719.59;;;25.53;42.82
34925;BME280;21130;51.728;8.748;2022-07-23T12:45:19;100725.16;;;25.71;41.74
34925;BME280;21130;51.728;8.748;2022-07-23T12:48:04;100726.56;;;25.09;43.82
34925;BME280;21130;51.728;8.748;2022-07-23T12:53:18;100732.25;;;24.83;44.74
34925;BME280;21130;51.728;8.748;2022-07-23T12:55:45;100729.19;;;25.70;43.89
34925;BME280;21130;51.728;8.748;2022-07-23T12:58:19;100733.72;;;25.24;43.31
34925;BME280;21130;51.728;8.748;2022-07-23T13:00:53;100722.06;;;25.16;43.55
34925;BME280;21130;51.728;8.748;2022-07-23T13:03:27;100725.53;;;25.22;43.16
34925;BME280;21130;51.728;8.748;2022-07-23T13:05:56;100718.94;;;25.86;42.64
34925;BME280;21130;51.728;8.748;2022-07-23T13:08:22;100726.22;;;25.96;42.11
34925;BME280;21130;51.728;8.748;2022-07-23T13:10:48;100727.09;;;26.38;40.54
34925;BME280;21130;51.728;8.748;2022-07-23T13:13:17;100732.69;;;26.56;39.31
34925;BME280;21130;51.728;8.748;2022-07-23T13:15:44;100722.66;;;26.91;41.89
34925;BME280;21130;51.728;8.748;2022-07-23T13:18:10;100729.69;;;27.40;38.83
34925;BME280;21130;51.728;8.748;2022-07-23T13:20:35;100718.69;;;27.17;38.24
34925;BME280;21130;51.728;8.748;2022-07-23T13:23:01;100710.47;;;26.49;39.83
34925;BME280;21130;51.728;8.748;2022-07-23T13:25:27;100725.16;;;26.09;40.48
34925;BME280;21130;51.728;8.748;2022-07-23T13:27:52;100724.41;;;26.21;40.61